Deerfield Twp, New Jersey
Current Conditions -  °F | °C
As of 10:54 AM on Sunday 25 Jan 2015 (Local Time) from KMIV Reporting Station
Broken Clouds Broken Clouds  
Wind Chill: 38°   Ceiling: 4900
Heat Index: 45°   Visibility: 10mi
Dew Point: 32°   Wind: 15mph
Humidity: 60%   Direction: 260°W
Pressure: 29.83"   Gusts: 24mph
Location:  39.4433°N, 75.2554°W
Report Text: KMIV 251554Z AUTO 26013G21KT 10SM BKN049 07/00 A2983 RMK AO2 SLPNO T00720000
Loading
Personal Weather Stations






























Interactive Weather Map New forecast layout! Learn more

10-Day Weather Forecast

Advertisements
Track Severe Weather on mobile